Details From SBPA - Salgado Filho
To SBFI - Foz Do Iguacu
Flight Number -
Tags generated
Created
Modified
Stats Distance 317 nm / 588 km
Max Altitude 32,300 ft / 9,845 m
Waypoints 5
Social Downloads 0
Likes 0
Share VATSIM

Download

Looking for another format? Having issues loading an existing format? Contact us
Advertisement - Login to hide

Notes

Basic altitude profile: - Ascent Rate: 2500ft/min - Ascent Speed: 250kts - Cruise Altitude: 35000ft - Cruise Speed: 420kts - Descent Rate: 1500ft/min - Descent Speed: 250kts Options: - Use NATs: yes - Use PACOTS: yes - Use low airways: yes - Use high airways: yes

Route

SBPA NOBEL UR563 ARGIL SBFI

ID Type Via Altitude Latitude Longitude Leg Dist Tot Dist Heading (true) Name
O SBPA APT - 0 ft / 0 m -29.99443˚ -51.17143˚ - 0 nm - Salgado Filho
NOBEL FIX - 30,300 ft / 9,235 m -28.82417˚ -52.08483˚ 84 nm 84 nm 326° / 326° -
BRICK FIX UR563 (AWY-HI) 32,300 ft / 9,845 m -27.69533˚ -52.94717˚ 81 nm 166 nm 326° / 326° -
ARGIL FIX UR563 (AWY-HI) 24,500 ft / 7,468 m -26.85508˚ -53.57467˚ 60 nm 227 nm 326° / 327° -
O SBFI APT - 0 ft / 0 m -25.59579˚ -54.48744˚ 90 nm 317 nm 327° / 327° Foz Do Iguacu

Altitude Profile

Advertisement - Login to hide

Weather


0- 5 10 15 20 25 30 35+ Temperature / ° C

Clouds and Precipitation
Forecast for 2018-05-21 06:00 UTC. Updated 2 hours ago

Ground ~20,000 ft ~40,000 ft Winds

SBPA

Details ICAO SBPA (POA)
Name Salgado Filho
Region Brazil
Timezone America/Sao_Paulo (UTC-3.0)
Stats Elevation 11 ft / 3 m (AMSL)
Location -29.994428° -51.171426°
Runways 1
Magnetic Variation 16.944° W

METAR

SBPA 210700Z 27006KT 9999 SCT025 SCT040 12/11 Q1017

Decode

TAF

Not found

Departure Runways

ID Width Length Bearing (true) Bearing (mag) Surface Threshold Offset Overrun Length
11 138 ft / 42 m 7,487 ft / 2,282 m 91.60° 108.54° Asphalt 0 ft / 0 m 230 ft / 70 m
29 138 ft / 42 m 7,487 ft / 2,282 m 271.59° 288.53° Asphalt 0 ft / 0 m 197 ft / 60 m

SBFI

Details ICAO SBFI (IGU)
Name Foz Do Iguacu
Region Brazil
Timezone America/Sao_Paulo (UTC-3.0)
Stats Elevation 787 ft / 240 m (AMSL)
Location -25.595790° -54.487443°
Runways 1
Magnetic Variation 16.359° W

METAR

SBFI 210700Z 14006KT CAVOK 08/08 Q1017

Decode

TAF

TAF SBFI 200415Z 2106/2206 15005KT 0800 FG NSC TN07/2109Z TX19/2118Z BECMG 2109/2111 9999 NSW FEW020 BECMG 2112/2114 CAVOK PROB40 2116/2120 35004KT 9999 FEW030 BECMG 2120/2122 08004KT BECMG 2202/2204 18003KT RMK PCX

Decode

Destination Runways

ID Width Length Bearing (true) Bearing (mag) Surface Threshold Offset Overrun Length
14 148 ft / 45 m 7,232 ft / 2,204 m 130.83° 147.19° Asphalt 0 ft / 0 m 164 ft / 50 m
32 148 ft / 45 m 7,232 ft / 2,204 m 310.83° 327.19° Asphalt 0 ft / 0 m 197 ft / 60 m

Approach Navaids

Runway Type Ident Frequency Range Bearing (true) Bearing (mag) Slope Elevation
14 Localiser IFI 109.10 MHz 18 nm / 33 km 130.98° 147.34° - 761 ft / 232 m (AMSL)
14 Glidescope IFI 109.10 MHz 10 nm / 19 km 130.83° 147.19° 3.00° 761 ft / 232 m (AMSL)

Popular Alternatives